Time;durP1;ratioP1;P1;durP2;ratioP2;P2;SDS_P1;SDS_P2;PMS_P1;PMS_P2;Temp;Humidity;BMP_temperature;BMP_pressure;BME280_temperature;BME280_humidity;BME280_pressure;Samples;Min_cycle;Max_cycle;Signal;HPM_P1;HPM_P2
2021/10/04 00:01:06;;;;;;;1.67;0.60;;;;;;;;;;5004089;28;20050;-78
2021/10/04 00:03:32;;;;;;;0.75;0.55;;;;;;;;;;4993438;28;20041;-79
2021/10/04 00:05:59;;;;;;;0.60;0.60;;;;;;;;;;4993557;28;20058;-80
2021/10/04 00:08:25;;;;;;;3.28;1.08;;;;;;;;;;4991807;28;20034;-80
2021/10/04 00:10:51;;;;;;;1.65;0.82;;;;;;;;;;4991359;28;20410;-79
2021/10/04 00:13:17;;;;;;;1.63;0.70;;;;;;;;;;4994916;28;20479;-79
2021/10/04 00:15:43;;;;;;;2.70;0.68;;;;;;;;;;4996908;28;20551;-79
2021/10/04 00:18:09;;;;;;;1.60;0.65;;;;;;;;;;4996769;28;20062;-79
2021/10/04 00:20:35;;;;;;;2.88;0.73;;;;;;;;;;4995781;28;20101;-79
2021/10/04 00:23:02;;;;;;;1.90;0.70;;;;;;;;;;4996370;28;20466;-79
2021/10/04 00:25:28;;;;;;;0.82;0.50;;;;;;;;;;4996631;28;20038;-79
2021/10/04 00:27:54;;;;;;;0.75;0.60;;;;;;;;;;4996688;28;20400;-79
2021/10/04 00:30:20;;;;;;;3.05;0.80;;;;;;;;;;4996398;28;20104;-80
2021/10/04 00:32:47;;;;;;;1.05;0.70;;;;;;;;;;4997176;28;20023;-79
2021/10/04 00:35:16;;;;;;;1.02;0.70;;;;;;;;;;4998092;28;20054;-80
2021/10/04 00:37:43;;;;;;;1.95;0.90;;;;;;;;;;5000737;28;20027;-81
2021/10/04 00:40:11;;;;;;;3.88;1.00;;;;;;;;;;5002407;28;20038;-80
2021/10/04 00:42:37;;;;;;;1.48;0.70;;;;;;;;;;5003100;28;20186;-81
2021/10/04 00:45:04;;;;;;;1.30;0.75;;;;;;;;;;4998296;28;20496;-80
2021/10/04 00:47:30;;;;;;;3.80;0.80;;;;;;;;;;4998450;28;20031;-80
2021/10/04 00:49:56;;;;;;;1.92;0.90;;;;;;;;;;4997508;28;20105;-80
2021/10/04 00:52:22;;;;;;;1.65;0.80;;;;;;;;;;4997551;28;20029;-80
2021/10/04 00:54:48;;;;;;;1.77;0.95;;;;;;;;;;4998096;28;20423;-80
2021/10/04 00:57:14;;;;;;;1.35;0.90;;;;;;;;;;4998696;28;20040;-80
2021/10/04 00:59:40;;;;;;;1.75;0.90;;;;;;;;;;4995814;28;20077;-80
2021/10/04 01:02:06;;;;;;;0.75;0.60;;;;;;;;;;4998310;28;20062;-79
2021/10/04 01:04:33;;;;;;;3.80;0.82;;;;;;;;;;4996970;28;20032;-80
2021/10/04 01:06:59;;;;;;;3.15;0.90;;;;;;;;;;4997883;28;20099;-81
2021/10/04 01:09:26;;;;;;;1.33;0.75;;;;;;;;;;4998172;28;20233;-80
2021/10/04 01:11:53;;;;;;;2.88;0.82;;;;;;;;;;4997821;28;20037;-80
2021/10/04 01:14:19;;;;;;;2.47;0.77;;;;;;;;;;4995889;28;20368;-81
2021/10/04 01:16:45;;;;;;;1.95;0.70;;;;;;;;;;4996948;28;20403;-80
2021/10/04 01:19:12;;;;;;;1.48;0.70;;;;;;;;;;4996923;28;20666;-80
2021/10/04 01:21:38;;;;;;;5.28;0.60;;;;;;;;;;4997463;28;20026;-81
2021/10/04 01:24:05;;;;;;;2.95;0.80;;;;;;;;;;4996164;28;20451;-80
2021/10/04 01:26:31;;;;;;;2.22;0.90;;;;;;;;;;4997049;28;20077;-80
2021/10/04 01:28:57;;;;;;;4.07;0.80;;;;;;;;;;4996251;28;20040;-81
2021/10/04 01:31:23;;;;;;;4.28;1.10;;;;;;;;;;4996392;28;20030;-81
2021/10/04 01:33:50;;;;;;;2.88;0.80;;;;;;;;;;4996390;28;20798;-81
2021/10/04 01:36:16;;;;;;;3.03;0.75;;;;;;;;;;4996604;28;20053;-81
2021/10/04 01:38:43;;;;;;;2.70;1.13;;;;;;;;;;4996450;28;20081;-81
2021/10/04 01:41:09;;;;;;;3.78;1.05;;;;;;;;;;4995880;28;20061;-81
2021/10/04 01:43:35;;;;;;;1.85;0.77;;;;;;;;;;4997141;28;20030;-81
2021/10/04 01:46:01;;;;;;;3.22;0.90;;;;;;;;;;4997505;28;20049;-81
2021/10/04 01:48:27;;;;;;;2.85;1.00;;;;;;;;;;5002502;28;20054;-81
2021/10/04 01:50:53;;;;;;;3.80;1.20;;;;;;;;;;5002081;28;20065;-81
2021/10/04 01:53:19;;;;;;;2.15;0.98;;;;;;;;;;5002671;28;20042;-82
2021/10/04 01:55:45;;;;;;;1.88;0.93;;;;;;;;;;5001177;28;20137;-82
2021/10/04 01:58:11;;;;;;;2.13;1.05;;;;;;;;;;5001646;28;20054;-82
2021/10/04 02:00:37;;;;;;;1.77;1.00;;;;;;;;;;5001180;28;20038;-82
2021/10/04 02:03:04;;;;;;;2.53;1.10;;;;;;;;;;5003547;28;20045;-82
2021/10/04 02:05:31;;;;;;;4.65;1.10;;;;;;;;;;5004869;28;20045;-82
2021/10/04 02:07:57;;;;;;;6.00;1.20;;;;;;;;;;5006204;28;20030;-82
2021/10/04 02:10:24;;;;;;;3.85;1.55;;;;;;;;;;5006026;28;20057;-83
2021/10/04 02:12:51;;;;;;;3.25;0.90;;;;;;;;;;5006509;28;20054;-82
2021/10/04 02:15:17;;;;;;;2.83;0.90;;;;;;;;;;5004887;28;20040;-82
2021/10/04 02:17:43;;;;;;;4.35;1.25;;;;;;;;;;5006967;28;20027;-82
2021/10/04 02:20:12;;;;;;;3.00;1.00;;;;;;;;;;5006055;28;20094;-82
2021/10/04 02:22:38;;;;;;;1.15;0.60;;;;;;;;;;5006795;28;20026;-82
2021/10/04 02:25:04;;;;;;;3.47;1.00;;;;;;;;;;5000561;28;20123;-82
2021/10/04 02:27:31;;;;;;;1.60;0.75;;;;;;;;;;5006226;28;20419;-82
2021/10/04 02:29:57;;;;;;;3.20;0.90;;;;;;;;;;5005621;28;20114;-82
2021/10/04 02:32:23;;;;;;;3.75;0.73;;;;;;;;;;5007058;28;20246;-82
2021/10/04 02:34:49;;;;;;;2.05;1.15;;;;;;;;;;5006800;28;20018;-82
2021/10/04 02:37:14;;;;;;;5.38;1.20;;;;;;;;;;5005472;28;20081;-82
2021/10/04 02:39:41;;;;;;;2.55;1.10;;;;;;;;;;5005925;28;20090;-82
2021/10/04 02:42:07;;;;;;;4.65;1.70;;;;;;;;;;5004714;28;20085;-82
2021/10/04 02:44:33;;;;;;;3.67;0.95;;;;;;;;;;5003703;28;20038;-82
2021/10/04 02:46:59;;;;;;;4.57;1.20;;;;;;;;;;5006606;28;20026;-83
2021/10/04 02:49:26;;;;;;;2.53;0.93;;;;;;;;;;5006923;28;20045;-82
2021/10/04 02:51:52;;;;;;;3.30;1.00;;;;;;;;;;5006820;28;20027;-82
2021/10/04 02:54:18;;;;;;;3.50;0.90;;;;;;;;;;5005365;28;20031;-82
2021/10/04 02:56:44;;;;;;;2.40;1.02;;;;;;;;;;5006767;28;20030;-82
2021/10/04 02:59:13;;;;;;;3.10;1.83;;;;;;;;;;5006922;28;20098;-84
2021/10/04 03:01:39;;;;;;;3.63;1.10;;;;;;;;;;5001697;28;20138;-82
2021/10/04 03:04:06;;;;;;;2.70;1.00;;;;;;;;;;5006916;28;20387;-82
2021/10/04 03:06:32;;;;;;;4.28;1.13;;;;;;;;;;5007785;28;20039;-82
2021/10/04 03:08:58;;;;;;;3.15;0.90;;;;;;;;;;5006836;28;20467;-82
2021/10/04 03:11:23;;;;;;;1.55;0.80;;;;;;;;;;5008221;28;20038;-82
2021/10/04 03:13:49;;;;;;;2.10;0.80;;;;;;;;;;5011552;28;20022;-83
2021/10/04 03:16:15;;;;;;;2.25;0.90;;;;;;;;;;5006535;28;20038;-82
2021/10/04 03:18:41;;;;;;;2.80;0.70;;;;;;;;;;5006380;28;20408;-82
2021/10/04 03:21:07;;;;;;;3.38;0.90;;;;;;;;;;5005205;28;20062;-83
2021/10/04 03:23:33;;;;;;;2.47;0.90;;;;;;;;;;5006968;28;20050;-82
2021/10/04 03:25:59;;;;;;;3.22;1.15;;;;;;;;;;5006890;28;20435;-82
2021/10/04 03:28:25;;;;;;;2.40;0.85;;;;;;;;;;5005971;28;20038;-83
2021/10/04 03:30:51;;;;;;;1.63;0.82;;;;;;;;;;5007150;28;20034;-82
2021/10/04 03:33:18;;;;;;;0.95;0.70;;;;;;;;;;4988908;28;20027;-82
2021/10/04 03:35:44;;;;;;;1.70;0.88;;;;;;;;;;4997773;28;20045;-82
2021/10/04 03:38:10;;;;;;;1.40;0.80;;;;;;;;;;5016630;28;20010;-82
2021/10/04 03:40:36;;;;;;;2.72;0.63;;;;;;;;;;5015953;28;20022;-82
2021/10/04 03:43:02;;;;;;;2.60;0.80;;;;;;;;;;5006780;28;20058;-82
2021/10/04 03:45:28;;;;;;;3.25;0.60;;;;;;;;;;4998260;28;20035;-82
2021/10/04 03:47:54;;;;;;;2.17;0.80;;;;;;;;;;5005518;28;20065;-83
2021/10/04 03:50:20;;;;;;;1.58;0.65;;;;;;;;;;5018022;28;20030;-82
2021/10/04 03:52:47;;;;;;;1.98;1.40;;;;;;;;;;5016965;28;20041;-82
2021/10/04 03:55:14;;;;;;;3.47;1.83;;;;;;;;;;5020205;28;20069;-82
2021/10/04 03:57:41;;;;;;;2.35;0.95;;;;;;;;;;5020310;28;20022;-82
2021/10/04 04:00:08;;;;;;;2.00;0.80;;;;;;;;;;5019832;28;20038;-82
2021/10/04 04:02:34;;;;;;;2.63;0.68;;;;;;;;;;5009010;28;20073;-82
2021/10/04 04:05:00;;;;;;;2.38;0.73;;;;;;;;;;5012113;28;20038;-82
2021/10/04 04:07:26;;;;;;;2.72;0.68;;;;;;;;;;5019438;28;20049;-83
2021/10/04 04:09:52;;;;;;;3.30;0.75;;;;;;;;;;5018815;28;20057;-82
2021/10/04 04:12:18;;;;;;;3.17;0.98;;;;;;;;;;5006356;28;20030;-81
2021/10/04 04:14:44;;;;;;;3.38;0.88;;;;;;;;;;4998552;28;20022;-81
2021/10/04 04:17:10;;;;;;;2.97;0.82;;;;;;;;;;4996644;28;20034;-82
2021/10/04 04:19:36;;;;;;;1.25;0.55;;;;;;;;;;4995250;28;20034;-82
2021/10/04 04:22:03;;;;;;;1.92;0.93;;;;;;;;;;4999061;28;20049;-81
2021/10/04 04:24:29;;;;;;;3.80;1.15;;;;;;;;;;5000647;28;20491;-81
2021/10/04 04:26:56;;;;;;;2.95;1.17;;;;;;;;;;5000261;28;20492;-82
2021/10/04 04:29:26;;;;;;;3.75;1.08;;;;;;;;;;4997935;28;20045;-82
2021/10/04 04:31:52;;;;;;;1.95;0.90;;;;;;;;;;5001836;28;20026;-82
2021/10/04 04:34:18;;;;;;;2.55;1.17;;;;;;;;;;4998968;28;20035;-81
2021/10/04 04:36:44;;;;;;;2.20;1.17;;;;;;;;;;4990887;28;20031;-81
2021/10/04 04:39:10;;;;;;;2.55;1.35;;;;;;;;;;4999837;28;20116;-82
2021/10/04 04:41:36;;;;;;;3.75;1.27;;;;;;;;;;4999921;28;20029;-82
2021/10/04 04:44:02;;;;;;;3.17;1.33;;;;;;;;;;5000343;28;20093;-81
2021/10/04 04:46:28;;;;;;;3.35;1.33;;;;;;;;;;5000354;28;20038;-82
2021/10/04 04:48:54;;;;;;;4.68;1.30;;;;;;;;;;4997203;28;20081;-82
2021/10/04 04:51:20;;;;;;;2.80;1.48;;;;;;;;;;4999704;28;20034;-82
2021/10/04 04:53:46;;;;;;;3.92;1.70;;;;;;;;;;4999583;28;20054;-82
2021/10/04 04:56:15;;;;;;;3.67;2.03;;;;;;;;;;5016372;23;20046;-83
2021/10/04 04:58:41;;;;;;;3.08;2.05;;;;;;;;;;4982116;28;20058;-83
2021/10/04 05:01:07;;;;;;;7.70;2.60;;;;;;;;;;4982112;28;20034;-83
2021/10/04 05:03:33;;;;;;;6.80;2.78;;;;;;;;;;4966936;28;20038;-84
2021/10/04 05:05:59;;;;;;;10.20;3.30;;;;;;;;;;4971086;28;20034;-83
2021/10/04 05:08:25;;;;;;;6.45;3.55;;;;;;;;;;5019994;28;20049;-84
2021/10/04 05:10:51;;;;;;;9.32;3.33;;;;;;;;;;5006939;28;20475;-83
2021/10/04 05:13:17;;;;;;;6.13;3.50;;;;;;;;;;4980208;28;20420;-83
2021/10/04 05:15:43;;;;;;;5.72;3.25;;;;;;;;;;4965736;28;20038;-82
2021/10/04 05:18:09;;;;;;;10.57;3.78;;;;;;;;;;4976995;28;20042;-83
2021/10/04 05:20:35;;;;;;;6.72;3.83;;;;;;;;;;4985644;28;20030;-83
2021/10/04 05:23:01;;;;;;;8.15;4.32;;;;;;;;;;4989230;28;20073;-84
2021/10/04 05:25:27;;;;;;;9.57;3.65;;;;;;;;;;4983567;28;20033;-84
2021/10/04 05:27:53;;;;;;;8.13;4.55;;;;;;;;;;4984269;28;20023;-85
2021/10/04 05:30:21;;;;;;;6.55;4.13;;;;;;;;;;4981175;28;20035;-84
2021/10/04 05:32:47;;;;;;;6.25;3.80;;;;;;;;;;4969736;28;20030;-84
2021/10/04 05:35:13;;;;;;;6.03;3.97;;;;;;;;;;4982813;28;20394;-83
2021/10/04 05:37:39;;;;;;;6.30;3.33;;;;;;;;;;4986481;28;20049;-85
2021/10/04 05:40:06;;;;;;;8.13;3.60;;;;;;;;;;4990104;28;20046;-84
2021/10/04 05:42:33;;;;;;;4.20;2.88;;;;;;;;;;4995586;28;20113;-83
2021/10/04 05:44:59;;;;;;;4.15;2.17;;;;;;;;;;5003105;28;20102;-81
2021/10/04 05:47:25;;;;;;;4.57;2.55;;;;;;;;;;4999953;28;20030;-84
2021/10/04 05:49:52;;;;;;;5.47;2.60;;;;;;;;;;4983189;28;20050;-84
2021/10/04 05:52:19;;;;;;;3.03;2.10;;;;;;;;;;4992584;28;20065;-83
2021/10/04 05:54:45;;;;;;;3.25;1.48;;;;;;;;;;5011319;28;20022;-83
2021/10/04 05:57:11;;;;;;;3.30;1.50;;;;;;;;;;5003832;28;20394;-83
2021/10/04 05:59:37;;;;;;;4.10;1.88;;;;;;;;;;4984866;28;20025;-83
2021/10/04 06:02:03;;;;;;;4.93;1.70;;;;;;;;;;4999702;28;20034;-83
2021/10/04 06:04:29;;;;;;;2.05;1.25;;;;;;;;;;4984586;28;20057;-83
2021/10/04 06:06:55;;;;;;;2.45;1.33;;;;;;;;;;4995194;28;20018;-83
2021/10/04 06:09:21;;;;;;;1.80;1.33;;;;;;;;;;5002704;28;20044;-83
2021/10/04 06:11:47;;;;;;;2.15;1.42;;;;;;;;;;4998811;28;20387;-83
2021/10/04 06:14:13;;;;;;;5.22;2.20;;;;;;;;;;4965863;28;20034;-83
2021/10/04 06:16:39;;;;;;;4.43;1.60;;;;;;;;;;4990958;28;20030;-83
2021/10/04 06:19:05;;;;;;;2.58;1.33;;;;;;;;;;4988390;28;20069;-82
2021/10/04 06:21:31;;;;;;;3.13;1.27;;;;;;;;;;4985120;28;20069;-83
2021/10/04 06:23:57;;;;;;;4.97;1.15;;;;;;;;;;4985240;28;20042;-83
2021/10/04 06:26:23;;;;;;;2.35;1.10;;;;;;;;;;4985874;28;20073;-83
2021/10/04 06:28:49;;;;;;;2.47;1.27;;;;;;;;;;4985844;28;20046;-83
2021/10/04 06:31:16;;;;;;;4.40;0.93;;;;;;;;;;4998054;28;20144;-82
2021/10/04 06:33:41;;;;;;;2.10;1.10;;;;;;;;;;5005246;28;20033;-82
2021/10/04 06:36:08;;;;;;;1.30;1.00;;;;;;;;;;4994112;28;20030;-82
2021/10/04 06:38:33;;;;;;;3.42;0.70;;;;;;;;;;4985469;28;20057;-83
2021/10/04 06:41:00;;;;;;;2.15;0.80;;;;;;;;;;4966556;28;20035;-82
2021/10/04 06:43:26;;;;;;;1.77;0.80;;;;;;;;;;4999582;28;20030;-83
2021/10/04 06:45:52;;;;;;;2.00;0.70;;;;;;;;;;5012110;28;20034;-82
2021/10/04 06:48:18;;;;;;;1.83;0.80;;;;;;;;;;4990980;28;20034;-83
2021/10/04 06:50:44;;;;;;;1.98;0.85;;;;;;;;;;4989113;28;20044;-83
2021/10/04 06:53:10;;;;;;;3.00;1.00;;;;;;;;;;4988746;28;20030;-84
2021/10/04 06:55:36;;;;;;;3.30;0.85;;;;;;;;;;5004001;28;20050;-83
2021/10/04 06:58:02;;;;;;;2.45;0.95;;;;;;;;;;4976778;28;20137;-84
2021/10/04 07:00:28;;;;;;;1.48;0.60;;;;;;;;;;4967240;28;20070;-83
2021/10/04 07:02:54;;;;;;;1.42;0.90;;;;;;;;;;5000263;28;20038;-83
2021/10/04 07:05:22;;;;;;;1.42;0.70;;;;;;;;;;4985760;28;20034;-83
2021/10/04 07:07:49;;;;;;;1.30;0.77;;;;;;;;;;4987854;28;20850;-83
2021/10/04 07:10:16;;;;;;;1.45;0.70;;;;;;;;;;4986268;28;20041;-83
2021/10/04 07:12:42;;;;;;;3.72;1.00;;;;;;;;;;5008126;28;20030;-83
2021/10/04 07:15:09;;;;;;;4.00;1.10;;;;;;;;;;4992620;28;20034;-83
2021/10/04 07:17:36;;;;;;;1.35;0.75;;;;;;;;;;5006873;28;20030;-83
2021/10/04 07:20:02;;;;;;;4.57;0.70;;;;;;;;;;5027602;28;20026;-83
2021/10/04 07:22:28;;;;;;;2.42;0.90;;;;;;;;;;5014921;28;20022;-83
2021/10/04 07:24:54;;;;;;;0.90;0.60;;;;;;;;;;4997887;28;20041;-83
2021/10/04 07:27:20;;;;;;;2.38;0.82;;;;;;;;;;4996816;28;20026;-83
2021/10/04 07:29:46;;;;;;;2.33;0.90;;;;;;;;;;4981557;28;20023;-82
2021/10/04 07:32:12;;;;;;;2.10;0.70;;;;;;;;;;5012681;28;20041;-82
2021/10/04 07:34:38;;;;;;;3.15;1.13;;;;;;;;;;4977850;28;20031;-83
2021/10/04 07:37:04;;;;;;;2.15;0.90;;;;;;;;;;5012855;28;20029;-83
2021/10/04 07:39:31;;;;;;;2.30;0.93;;;;;;;;;;4998631;28;20033;-82
2021/10/04 07:41:58;;;;;;;2.30;1.48;;;;;;;;;;5012799;28;20018;-82
2021/10/04 07:44:24;;;;;;;1.58;1.08;;;;;;;;;;4997006;28;20050;-82
2021/10/04 07:46:50;;;;;;;1.55;1.08;;;;;;;;;;5000654;28;20029;-82
2021/10/04 07:49:17;;;;;;;2.85;1.10;;;;;;;;;;5014060;28;20022;-82
2021/10/04 07:51:43;;;;;;;2.55;1.30;;;;;;;;;;5014127;28;20100;-82
2021/10/04 07:54:09;;;;;;;4.38;1.60;;;;;;;;;;5030955;28;20026;-83
2021/10/04 07:56:38;;;;;;;2.45;1.63;;;;;;;;;;4995177;28;20026;-82
2021/10/04 07:59:04;;;;;;;2.10;1.35;;;;;;;;;;5012841;28;20026;-82
2021/10/04 08:01:32;;;;;;;2.47;1.35;;;;;;;;;;5015691;28;20066;-82
2021/10/04 08:03:58;;;;;;;3.60;1.77;;;;;;;;;;5000334;28;20022;-83
2021/10/04 08:06:26;;;;;;;2.05;1.25;;;;;;;;;;5008386;28;20080;-82
2021/10/04 08:08:52;;;;;;;1.95;1.10;;;;;;;;;;5009428;28;20031;-83
2021/10/04 08:11:18;;;;;;;3.63;1.40;;;;;;;;;;4993781;28;20046;-82
2021/10/04 08:13:45;;;;;;;2.78;1.40;;;;;;;;;;4994455;28;20062;-82
2021/10/04 08:16:12;;;;;;;1.73;1.15;;;;;;;;;;5003346;28;20079;-82
2021/10/04 08:18:38;;;;;;;4.45;1.10;;;;;;;;;;4973944;28;20838;-81
2021/10/04 08:21:04;;;;;;;1.55;0.80;;;;;;;;;;4994477;28;20066;-81
2021/10/04 08:23:30;;;;;;;1.38;0.90;;;;;;;;;;4995143;28;20041;-82
2021/10/04 08:25:56;;;;;;;1.95;0.70;;;;;;;;;;4993288;28;20042;-81
2021/10/04 08:28:22;;;;;;;1.67;0.82;;;;;;;;;;5011825;28;20101;-82
2021/10/04 08:30:48;;;;;;;1.98;0.90;;;;;;;;;;5011269;28;20031;-82
2021/10/04 08:33:15;;;;;;;1.90;0.95;;;;;;;;;;4994587;28;20037;-82
2021/10/04 08:35:41;;;;;;;3.78;0.80;;;;;;;;;;4997665;28;20040;-82
2021/10/04 08:38:07;;;;;;;2.78;0.95;;;;;;;;;;5021810;28;20037;-82
2021/10/04 08:40:33;;;;;;;1.65;0.80;;;;;;;;;;5000684;28;20379;-82
2021/10/04 08:42:59;;;;;;;2.38;1.20;;;;;;;;;;5001707;28;20026;-81
2021/10/04 08:45:28;;;;;;;2.80;1.05;;;;;;;;;;4985643;28;20478;-82
2021/10/04 08:47:58;;;;;;;2.30;1.10;;;;;;;;;;4984817;28;20026;-81
2021/10/04 08:50:25;;;;;;;1.65;1.00;;;;;;;;;;4985328;28;20041;-81
2021/10/04 08:52:51;;;;;;;3.30;0.68;;;;;;;;;;5018525;28;20026;-81
2021/10/04 08:55:18;;;;;;;2.60;0.73;;;;;;;;;;5000966;28;20441;-81
2021/10/04 08:57:45;;;;;;;1.15;0.68;;;;;;;;;;5000799;28;20034;-80
2021/10/04 09:00:11;;;;;;;2.10;0.50;;;;;;;;;;5001465;28;20033;-81
2021/10/04 09:02:37;;;;;;;2.05;0.50;;;;;;;;;;5001030;28;20037;-81
2021/10/04 09:05:13;;;;;;;1.10;0.68;;;;;;;;;;4983900;28;20034;-82
2021/10/04 09:07:47;;;;;;;1.85;0.60;;;;;;;;;;5000359;28;20398;-80
2021/10/04 09:10:16;;;;;;;2.63;0.75;;;;;;;;;;5012484;28;20072;-81
2021/10/04 09:12:44;;;;;;;1.33;0.50;;;;;;;;;;4998091;28;20027;-81
2021/10/04 09:15:25;;;;;;;2.92;0.40;;;;;;;;;;4979818;28;20487;-81
2021/10/04 09:17:51;;;;;;;2.25;0.60;;;;;;;;;;4990597;28;20033;-81
2021/10/04 09:20:18;;;;;;;1.85;0.50;;;;;;;;;;5016454;28;20026;-81
2021/10/04 09:22:44;;;;;;;1.52;0.40;;;;;;;;;;4980303;28;20069;-81
2021/10/04 09:25:10;;;;;;;1.60;0.40;;;;;;;;;;4996932;28;20027;-82
2021/10/04 09:27:40;;;;;;;1.58;0.50;;;;;;;;;;4995973;28;20125;-81
2021/10/04 09:30:15;;;;;;;2.03;0.40;;;;;;;;;;5014171;28;20433;-82
2021/10/04 09:32:48;;;;;;;1.67;0.68;;;;;;;;;;4996566;28;20030;-81
2021/10/04 09:35:17;;;;;;;0.90;0.50;;;;;;;;;;5011891;28;20045;-81
2021/10/04 09:37:44;;;;;;;1.23;0.55;;;;;;;;;;4997029;28;20042;-81
2021/10/04 09:40:27;;;;;;;3.38;0.80;;;;;;;;;;4982036;28;20482;-81
2021/10/04 09:42:54;;;;;;;2.08;0.52;;;;;;;;;;5015845;28;20058;-81
2021/10/04 09:45:20;;;;;;;1.40;0.52;;;;;;;;;;4992601;28;20034;-82
2021/10/04 09:47:46;;;;;;;0.65;0.43;;;;;;;;;;4997255;28;20026;-81
2021/10/04 09:50:38;;;;;;;0.82;0.50;;;;;;;;;;4998205;28;20400;-82
2021/10/04 09:53:05;;;;;;;2.53;0.45;;;;;;;;;;4976931;28;20045;-81
2021/10/04 09:55:31;;;;;;;0.73;0.52;;;;;;;;;;4978736;28;20498;-82
2021/10/04 09:58:03;;;;;;;1.10;0.50;;;;;;;;;;4978812;28;20027;-82
2021/10/04 10:00:33;;;;;;;0.50;0.45;;;;;;;;;;5005247;28;20030;-82
2021/10/04 10:02:59;;;;;;;2.70;0.60;;;;;;;;;;4983229;28;20034;-82
2021/10/04 10:05:26;;;;;;;2.17;0.55;;;;;;;;;;4993594;28;20045;-82
2021/10/04 10:07:53;;;;;;;2.03;0.40;;;;;;;;;;5016272;28;20049;-82
2021/10/04 10:10:19;;;;;;;1.73;0.50;;;;;;;;;;5014721;28;20075;-82
2021/10/04 10:12:46;;;;;;;1.48;0.60;;;;;;;;;;5015728;28;20108;-82
2021/10/04 10:15:19;;;;;;;1.10;0.40;;;;;;;;;;5015312;28;20025;-81
2021/10/04 10:17:47;;;;;;;1.50;0.47;;;;;;;;;;5002381;28;20018;-81
2021/10/04 10:20:16;;;;;;;0.90;0.50;;;;;;;;;;5003935;28;20120;-81
2021/10/04 10:22:46;;;;;;;2.00;0.40;;;;;;;;;;5020785;28;20037;-81
2021/10/04 10:25:31;;;;;;;1.70;0.60;;;;;;;;;;4986504;28;20404;-81
2021/10/04 10:27:57;;;;;;;0.60;0.32;;;;;;;;;;4985613;28;20399;-81
2021/10/04 10:30:24;;;;;;;1.23;0.40;;;;;;;;;;4984042;28;20073;-80
2021/10/04 10:32:51;;;;;;;1.67;0.40;;;;;;;;;;4997028;28;20061;-82
2021/10/04 10:35:17;;;;;;;1.50;0.60;;;;;;;;;;4967561;28;20486;-81
2021/10/04 10:37:51;;;;;;;1.45;0.57;;;;;;;;;;4982124;28;20034;-82
2021/10/04 10:40:24;;;;;;;1.15;0.60;;;;;;;;;;4997958;28;20041;-80
2021/10/04 10:42:49;;;;;;;;;;;;;;;;;;5017166;28;20041;-80
2021/10/04 10:45:16;;;;;;;1.35;0.52;;;;;;;;;;4996731;28;20376;-82
2021/10/04 10:47:49;;;;;;;3.45;0.80;;;;;;;;;;4995734;28;20034;-81
2021/10/04 10:50:15;;;;;;;1.33;0.70;;;;;;;;;;4995626;28;20030;-80
2021/10/04 10:52:41;;;;;;;2.17;0.70;;;;;;;;;;4980187;28;20022;-81
2021/10/04 10:55:20;;;;;;;2.17;0.90;;;;;;;;;;5000332;28;20022;-81
2021/10/04 10:57:52;;;;;;;2.58;1.00;;;;;;;;;;4997752;23;20129;-80
2021/10/04 11:00:21;;;;;;;3.28;0.80;;;;;;;;;;4978441;28;20034;-80
2021/10/04 11:02:48;;;;;;;1.08;0.50;;;;;;;;;;4978569;28;20031;-79
2021/10/04 11:05:33;;;;;;;2.42;0.70;;;;;;;;;;4978280;28;20798;-79
2021/10/04 11:07:59;;;;;;;1.55;0.77;;;;;;;;;;4978446;28;20062;-79
2021/10/04 11:10:25;;;;;;;2.40;0.75;;;;;;;;;;4976575;28;20039;-79
2021/10/04 11:13:09;;;;;;;1.92;0.47;;;;;;;;;;4978475;28;20360;-79
2021/10/04 11:15:35;;;;;;;1.77;0.60;;;;;;;;;;4978480;28;20030;-80
2021/10/04 11:18:01;;;;;;;2.03;0.35;;;;;;;;;;4978617;28;20062;-80
2021/10/04 11:20:28;;;;;;;0.95;0.57;;;;;;;;;;4978155;28;20439;-80
2021/10/04 11:23:10;;;;;;;1.88;0.60;;;;;;;;;;4978211;28;20041;-80
2021/10/04 11:25:50;;;;;;;1.90;0.50;;;;;;;;;;4976071;28;20121;-79
2021/10/04 11:28:19;;;;;;;1.65;0.57;;;;;;;;;;4976077;28;20498;-80
2021/10/04 11:30:51;;;;;;;4.00;0.60;;;;;;;;;;4977070;28;20034;-80
2021/10/04 11:33:17;;;;;;;1.10;0.50;;;;;;;;;;4976128;28;20027;-79
2021/10/04 11:35:59;;;;;;;1.40;0.50;;;;;;;;;;4975621;28;20058;-80
2021/10/04 11:38:27;;;;;;;0.80;0.40;;;;;;;;;;4975845;28;20059;-79
2021/10/04 11:40:54;;;;;;;1.70;0.70;;;;;;;;;;4975238;28;20045;-79
2021/10/04 11:43:20;;;;;;;0.93;0.32;;;;;;;;;;4976500;28;20061;-79
2021/10/04 11:45:47;;;;;;;1.60;0.70;;;;;;;;;;4974599;28;20031;-79
2021/10/04 11:48:26;;;;;;;1.15;0.52;;;;;;;;;;4975899;28;20058;-79
2021/10/04 11:50:53;;;;;;;2.10;0.60;;;;;;;;;;4975194;28;20078;-79
2021/10/04 11:53:19;;;;;;;0.85;0.60;;;;;;;;;;4974678;28;20472;-79
2021/10/04 11:55:56;;;;;;;2.60;0.60;;;;;;;;;;4976517;28;20026;-79
2021/10/04 11:58:22;;;;;;;2.17;0.70;;;;;;;;;;4976146;28;20038;-79
2021/10/04 12:00:49;;;;;;;1.67;0.82;;;;;;;;;;4967845;28;20117;-80
2021/10/04 12:03:31;;;;;;;4.55;1.40;;;;;;;;;;4974834;28;20086;-79
2021/10/04 12:05:58;;;;;;;2.10;0.80;;;;;;;;;;4977301;28;20042;-80
2021/10/04 12:08:25;;;;;;;3.85;0.80;;;;;;;;;;4977938;28;20031;-79
2021/10/04 12:10:56;;;;;;;2.25;0.60;;;;;;;;;;4980184;28;20035;-79
2021/10/04 12:13:37;;;;;;;2.70;0.50;;;;;;;;;;4979694;28;20031;-79
2021/10/04 12:16:11;;;;;;;1.65;0.50;;;;;;;;;;4979728;28;20027;-80
2021/10/04 12:18:44;;;;;;;1.13;0.50;;;;;;;;;;4980654;28;20026;-79
2021/10/04 12:21:24;;;;;;;0.73;0.30;;;;;;;;;;4980527;28;20039;-79
2021/10/04 12:24:09;;;;;;;1.65;0.40;;;;;;;;;;4981500;28;20027;-80
2021/10/04 12:26:54;;;;;;;0.80;0.43;;;;;;;;;;4979966;28;20026;-79
2021/10/04 12:29:33;;;;;;;2.33;0.47;;;;;;;;;;4979306;28;20034;-80
2021/10/04 12:32:18;;;;;;;0.63;0.35;;;;;;;;;;4979228;28;20444;-80
2021/10/04 12:35:03;;;;;;;0.68;0.32;;;;;;;;;;4979926;28;20042;-80
2021/10/04 12:37:31;;;;;;;1.52;0.50;;;;;;;;;;4980470;28;20014;-80
2021/10/04 12:39:57;;;;;;;1.98;0.90;;;;;;;;;;4979271;28;20054;-80
2021/10/04 12:42:23;;;;;;;1.83;0.60;;;;;;;;;;4979899;28;20033;-80
2021/10/04 12:44:49;;;;;;;3.13;0.60;;;;;;;;;;4979075;28;20031;-80
2021/10/04 12:47:16;;;;;;;1.73;0.55;;;;;;;;;;4983972;28;20095;-80
2021/10/04 12:49:55;;;;;;;1.25;0.60;;;;;;;;;;4981852;28;20039;-80
2021/10/04 12:52:24;;;;;;;0.82;0.50;;;;;;;;;;4980775;28;20023;-80
2021/10/04 12:54:50;;;;;;;0.50;0.40;;;;;;;;;;4979196;28;20150;-80
2021/10/04 12:57:27;;;;;;;0.60;0.30;;;;;;;;;;4979673;28;20034;-80
2021/10/04 13:00:00;;;;;;;1.15;0.47;;;;;;;;;;4979828;28;20088;-80
2021/10/04 13:02:28;;;;;;;1.52;0.50;;;;;;;;;;4979340;28;20039;-80
2021/10/04 13:04:56;;;;;;;1.23;0.50;;;;;;;;;;4978595;28;20105;-80
2021/10/04 13:07:23;;;;;;;1.13;0.40;;;;;;;;;;4977418;28;20027;-78
2021/10/04 13:09:50;;;;;;;0.80;0.40;;;;;;;;;;4977090;28;20078;-79
2021/10/04 13:12:18;;;;;;;0.50;0.30;;;;;;;;;;4979710;28;20094;-78
2021/10/04 13:14:44;;;;;;;1.08;0.40;;;;;;;;;;4962427;28;20018;-79
2021/10/04 13:17:10;;;;;;;0.93;0.30;;;;;;;;;;4980569;28;20118;-78
2021/10/04 13:19:36;;;;;;;0.73;0.43;;;;;;;;;;4982605;28;20035;-78
2021/10/04 13:22:02;;;;;;;1.48;0.60;;;;;;;;;;4984774;28;20149;-78
2021/10/04 13:24:28;;;;;;;0.82;0.60;;;;;;;;;;4980251;28;20041;-79
2021/10/04 13:26:54;;;;;;;1.60;0.40;;;;;;;;;;4978908;28;20042;-78
2021/10/04 13:29:20;;;;;;;0.75;0.40;;;;;;;;;;4978048;28;20023;-80
2021/10/04 13:31:46;;;;;;;0.90;0.40;;;;;;;;;;4978103;28;20050;-79
2021/10/04 13:34:13;;;;;;;0.40;0.40;;;;;;;;;;4978778;28;20039;-78
2021/10/04 13:36:40;;;;;;;0.65;0.30;;;;;;;;;;4979105;28;20023;-79
2021/10/04 13:39:06;;;;;;;1.85;0.50;;;;;;;;;;4976513;28;20029;-79
2021/10/04 13:41:32;;;;;;;1.02;0.68;;;;;;;;;;4978795;28;20034;-79
2021/10/04 13:43:58;;;;;;;0.95;0.70;;;;;;;;;;4971986;28;20081;-80
2021/10/04 13:46:24;;;;;;;3.05;0.50;;;;;;;;;;4976962;28;20106;-81
2021/10/04 13:48:51;;;;;;;1.48;0.30;;;;;;;;;;4976025;28;20035;-79
2021/10/04 13:51:19;;;;;;;0.60;0.32;;;;;;;;;;4975187;28;20019;-79
2021/10/04 13:53:49;;;;;;;0.50;0.45;;;;;;;;;;4975649;28;20027;-79
2021/10/04 13:56:15;;;;;;;1.30;0.40;;;;;;;;;;4957791;28;20031;-79
2021/10/04 13:58:41;;;;;;;0.35;0.30;;;;;;;;;;4976995;28;20045;-80
2021/10/04 14:01:09;;;;;;;1.00;0.40;;;;;;;;;;4977856;28;20113;-80
2021/10/04 14:03:35;;;;;;;1.10;0.50;;;;;;;;;;4980597;28;20035;-78
2021/10/04 14:06:02;;;;;;;1.00;0.50;;;;;;;;;;4979767;28;20039;-78
2021/10/04 14:08:28;;;;;;;1.98;0.47;;;;;;;;;;4978920;28;20023;-79
2021/10/04 14:10:54;;;;;;;0.70;0.32;;;;;;;;;;4980041;28;20031;-77
2021/10/04 14:13:20;;;;;;;1.25;0.40;;;;;;;;;;4981868;28;20034;-78
2021/10/04 14:15:46;;;;;;;1.00;0.35;;;;;;;;;;4981162;28;20048;-78
2021/10/04 14:18:12;;;;;;;1.00;0.40;;;;;;;;;;4979903;28;20428;-78
2021/10/04 14:20:38;;;;;;;0.90;0.40;;;;;;;;;;4977728;28;20042;-78
2021/10/04 14:23:04;;;;;;;4.07;0.63;;;;;;;;;;4977849;28;20039;-78
2021/10/04 14:25:30;;;;;;;0.40;0.30;;;;;;;;;;4978468;28;20049;-78
2021/10/04 14:27:56;;;;;;;1.23;0.40;;;;;;;;;;4976541;28;20026;-78
2021/10/04 14:30:23;;;;;;;0.77;0.45;;;;;;;;;;4978226;28;20030;-78
2021/10/04 14:32:49;;;;;;;0.95;0.47;;;;;;;;;;4978216;28;20534;-80
2021/10/04 14:35:22;;;;;;;1.83;0.43;;;;;;;;;;4979995;28;20031;-80
2021/10/04 14:37:48;;;;;;;;;;;;;;;;;;4962693;28;20591;-79
2021/10/04 14:40:14;;;;;;;0.80;0.57;;;;;;;;;;4978167;28;19957;-79
2021/10/04 14:42:40;;;;;;;4.95;0.40;;;;;;;;;;4979004;28;20031;-79
2021/10/04 14:45:07;;;;;;;1.45;0.60;;;;;;;;;;4979330;28;20033;-79